Terminal Aerodrome Forecast
Issued by NWS Green Bay, WI

Home | Current Version | Previous Version | Text Only | Print | Product List | Glossary Off
Versions: 1 2 3 4 5 6 7 8 9 10 11 12 13 14 15 16 17 18 19 20 21 22 23 24 25 26 27 28 29 30 31 32 33 34 35 36 37 38 39 40 41 42 43 44 45 46 47 48 49 50

257
FTUS43 KGRB 131220 AAA
TAFGRB
TAF AMD
KGRB 131220Z 1312/1412 10007KT 2SM -SN SCT012 OVC023
      TEMPO 1312/1313 1SM -SN BKN012
     FM131300 11010KT 1SM -SN SCT007 OVC012
      TEMPO 1314/1318 1/2SM SN OVC007
     FM131800 06012KT 2SM -SN SCT008 OVC018
     FM132100 04012G20KT 1SM -SN SCT007 OVC015
     FM140200 01011G17KT 5SM -SHSN BKN030
     FM140500 34008KT P6SM SCT035=

USA.gov is the U.S. government's official web portal to all federal, state and local government web resources and services.